Time;durP1;ratioP1;P1;durP2;ratioP2;P2;SDS_P1;SDS_P2;PMS_P1;PMS_P2;Temp;Humidity;BMP_temperature;BMP_pressure;BME280_temperature;BME280_humidity;BME280_pressure;Samples;Min_cycle;Max_cycle;Signal;HPM_P1;HPM_P2
2022/11/25 00:01:11;;;;;;;24.80;4.15;;;14.50;99.90;;;;;;5001604;28;25123;-76
2022/11/25 00:03:37;;;;;;;20.23;4.22;;;14.80;99.90;;;;;;4987540;28;25147;-79
2022/11/25 00:06:18;;;;;;;19.58;4.22;;;14.70;99.90;;;;;;5000999;28;25065;-78
2022/11/25 00:08:45;;;;;;;24.77;4.18;;;14.70;99.90;;;;;;5023415;28;25067;-78
2022/11/25 00:11:12;;;;;;;20.48;3.90;;;14.80;99.90;;;;;;4999234;28;25089;-78
2022/11/25 00:13:39;;;;;;;18.98;3.67;;;14.80;99.90;;;;;;4994569;28;25091;-77
2022/11/25 00:16:10;;;;;;;21.48;3.65;;;15.10;99.90;;;;;;4988173;28;25149;-77
2022/11/25 00:18:36;;;;;;;27.00;4.25;;;15.00;99.90;;;;;;4986922;28;25110;-78
2022/11/25 00:21:07;;;;;;;17.67;3.95;;;15.10;99.90;;;;;;4991522;28;25107;-78
2022/11/25 00:23:34;;;;;;;17.67;4.18;;;15.20;99.90;;;;;;4999761;28;25075;-77
2022/11/25 00:26:13;;;;;;;12.55;3.58;;;15.20;99.90;;;;;;4984673;28;25170;-78
2022/11/25 00:28:41;;;;;;;18.25;3.55;;;15.50;99.90;;;;;;4990976;28;25065;-78
2022/11/25 00:31:07;;;;;;;20.63;3.50;;;15.50;99.90;;;;;;5007632;28;25054;-77
2022/11/25 00:33:34;;;;;;;22.05;3.83;;;15.40;99.90;;;;;;4985026;28;25049;-78
2022/11/25 00:36:01;;;;;;;15.13;3.45;;;15.40;99.90;;;;;;4991421;28;25121;-78
2022/11/25 00:38:27;;;;;;;19.38;3.35;;;15.60;99.90;;;;;;5004151;28;25141;-78
2022/11/25 00:46:21;;;;;;;14.65;3.60;;;15.80;99.90;;;;;;4987120;28;25128;-76
2022/11/25 00:48:47;;;;;;;15.10;3.55;;;15.70;99.90;;;;;;4988228;28;25158;-78
2022/11/25 00:51:12;;;;;;;22.67;5.22;;;15.80;99.90;;;;;;4989579;28;25113;-78
2022/11/25 00:53:38;;;;;;;18.67;4.22;;;15.70;99.90;;;;;;4982435;28;25090;-77
2022/11/25 00:56:14;;;;;;;15.88;3.58;;;15.80;99.90;;;;;;4981004;28;25097;-78
2022/11/25 00:58:41;;;;;;;19.33;4.65;;;15.80;99.90;;;;;;4988121;28;25123;-78
2022/11/25 01:01:07;;;;;;;11.20;2.72;;;15.90;99.90;;;;;;4986304;28;25104;-78
2022/11/25 01:03:33;;;;;;;13.75;3.38;;;16.10;99.90;;;;;;4986655;28;25130;-78
2022/11/25 01:06:10;;;;;;;25.13;4.72;;;16.00;99.90;;;;;;4987917;28;25068;-78
2022/11/25 01:08:37;;;;;;;20.52;4.15;;;16.00;99.90;;;;;;4986336;28;25116;-79
2022/11/25 01:11:06;;;;;;;22.63;4.47;;;16.10;99.90;;;;;;4986134;28;25059;-77
2022/11/25 01:13:33;;;;;;;22.88;3.55;;;16.30;99.90;;;;;;4985743;28;25146;-77
2022/11/25 01:16:03;;;;;;;26.02;3.92;;;16.10;99.90;;;;;;4985669;28;25068;-78
2022/11/25 01:18:30;;;;;;;22.40;4.00;;;16.20;99.90;;;;;;4987469;28;25118;-79
2022/11/25 01:21:05;;;;;;;29.48;4.10;;;16.10;99.90;;;;;;4998741;28;25060;-77
2022/11/25 01:23:31;;;;;;;12.30;3.45;;;16.10;99.90;;;;;;4999967;28;25062;-79
2022/11/25 01:25:59;;;;;;;13.52;3.63;;;16.30;99.90;;;;;;5002204;28;25052;-78
2022/11/25 01:28:25;;;;;;;13.43;3.28;;;16.30;99.90;;;;;;4998761;28;25069;-78
2022/11/25 01:31:17;;;;;;;14.27;3.25;;;16.50;99.90;;;;;;4997391;28;25093;-78
2022/11/25 01:33:44;;;;;;;20.67;4.15;;;16.40;99.90;;;;;;4988450;28;25110;-77
2022/11/25 01:36:13;;;;;;;21.30;4.47;;;16.60;99.90;;;;;;4983559;28;25114;-78
2022/11/25 01:38:39;;;;;;;16.52;3.95;;;16.50;99.90;;;;;;4986032;28;25110;-78
2022/11/25 01:41:07;;;;;;;13.27;3.53;;;16.40;99.90;;;;;;4986842;28;25143;-77
2022/11/25 01:43:33;;;;;;;14.10;3.40;;;16.50;99.90;;;;;;4987200;28;25071;-77
2022/11/25 01:46:17;;;;;;;20.70;4.05;;;16.50;99.90;;;;;;4996147;28;25083;-77
2022/11/25 01:48:53;;;;;;;15.88;3.38;;;16.60;99.90;;;;;;4985916;28;25115;-78
2022/11/25 01:51:45;;;;;;;20.58;4.00;;;16.70;99.90;;;;;;4984910;28;25173;-77
2022/11/25 01:54:17;;;;;;;20.17;3.80;;;16.70;99.90;;;;;;4985251;28;25154;-78
2022/11/25 01:56:48;;;;;;;19.58;3.17;;;16.70;99.90;;;;;;4995860;28;25149;-77
2022/11/25 01:59:15;;;;;;;19.92;2.55;;;16.80;99.90;;;;;;4997567;28;25065;-79
2022/11/25 02:01:40;;;;;;;17.35;3.05;;;16.90;99.90;;;;;;4994887;28;25106;-79
2022/11/25 02:04:08;;;;;;;19.33;3.55;;;16.90;99.90;;;;;;4995483;28;25107;-79
2022/11/25 02:06:56;;;;;;;15.10;2.85;;;16.80;99.90;;;;;;5016502;28;25127;-78
2022/11/25 02:09:22;;;;;;;7.95;3.28;;;16.80;99.90;;;;;;5012448;28;25066;-79
2022/11/25 02:11:50;;;;;;;14.00;2.40;;;16.90;99.90;;;;;;5004961;28;25136;-77
2022/11/25 02:14:18;;;;;;;6.97;2.20;;;16.80;99.90;;;;;;5001586;28;25054;-77
2022/11/25 02:16:44;;;;;;;16.33;3.00;;;16.70;99.90;;;;;;5009168;28;25134;-78
2022/11/25 02:19:21;;;;;;;9.35;3.35;;;16.70;99.90;;;;;;5002334;28;25090;-77
2022/11/25 02:21:53;;;;;;;9.57;2.30;;;16.80;99.90;;;;;;4994822;28;25120;-77
2022/11/25 02:24:41;;;;;;;13.65;2.75;;;16.80;99.90;;;;;;5007551;28;25071;-77
2022/11/25 02:27:07;;;;;;;21.45;2.83;;;16.70;99.90;;;;;;4996939;28;25071;-78
2022/11/25 02:29:33;;;;;;;14.43;2.63;;;16.60;99.90;;;;;;5015276;28;25072;-79
2022/11/25 02:31:59;;;;;;;9.93;2.28;;;16.50;99.90;;;;;;5005568;28;25092;-79
2022/11/25 02:34:25;;;;;;;12.00;1.85;;;16.50;99.90;;;;;;5009229;28;25075;-78
2022/11/25 02:36:51;;;;;;;12.30;3.35;;;16.70;99.90;;;;;;5007183;28;25063;-80
2022/11/25 02:39:19;;;;;;;7.88;1.88;;;16.60;99.90;;;;;;5003075;28;25067;-79
2022/11/25 02:41:51;;;;;;;12.07;2.53;;;16.60;99.90;;;;;;5002469;28;25054;-77
2022/11/25 02:44:17;;;;;;;5.38;1.70;;;16.40;99.90;;;;;;5004292;28;25126;-77
2022/11/25 02:46:43;;;;;;;8.57;1.65;;;16.50;99.90;;;;;;4998611;28;25081;-78
2022/11/25 02:49:09;;;;;;;7.20;2.20;;;16.50;99.90;;;;;;4996495;28;25063;-79
2022/11/25 02:51:34;;;;;;;5.47;1.88;;;16.30;99.90;;;;;;5000373;28;25068;-77
2022/11/25 02:54:01;;;;;;;10.75;2.25;;;16.30;99.90;;;;;;4997526;28;25061;-78
2022/11/25 02:56:29;;;;;;;3.97;1.58;;;16.30;99.90;;;;;;4992457;28;25071;-77
2022/11/25 02:58:55;;;;;;;9.07;2.10;;;16.20;99.90;;;;;;4994630;28;25548;-79
2022/11/25 03:01:21;;;;;;;5.10;1.33;;;16.20;99.90;;;;;;4992217;28;25070;-78
2022/11/25 03:03:47;;;;;;;6.45;1.70;;;16.20;99.90;;;;;;4993691;28;25081;-78
2022/11/25 03:06:12;;;;;;;15.50;1.83;;;16.00;99.90;;;;;;5000160;28;25169;-79
2022/11/25 03:08:38;;;;;;;9.05;1.67;;;16.00;99.90;;;;;;4993396;28;25057;-78
2022/11/25 03:11:04;;;;;;;13.35;1.73;;;16.00;99.90;;;;;;4996763;28;25078;-77
2022/11/25 03:13:30;;;;;;;9.10;1.50;;;15.90;99.90;;;;;;4992074;28;25156;-78
2022/11/25 03:15:56;;;;;;;5.80;1.58;;;15.80;99.90;;;;;;5010091;28;25155;-78
2022/11/25 03:18:22;;;;;;;10.57;1.45;;;15.70;99.90;;;;;;4989069;28;25090;-80
2022/11/25 03:20:52;;;;;;;4.50;1.63;;;15.50;99.90;;;;;;4996692;28;25095;-80
2022/11/25 03:23:17;;;;;;;6.53;1.80;;;15.50;99.90;;;;;;5003078;28;25057;-78
2022/11/25 03:25:43;;;;;;;3.17;1.05;;;15.50;99.90;;;;;;4992637;28;25053;-78
2022/11/25 03:28:09;;;;;;;7.78;1.30;;;15.50;99.90;;;;;;4992798;28;25081;-79
2022/11/25 03:30:34;;;;;;;7.05;1.17;;;15.60;99.90;;;;;;4995582;28;25090;-78
2022/11/25 03:33:00;;;;;;;7.40;1.48;;;15.60;99.90;;;;;;4994579;28;25071;-78
2022/11/25 03:35:26;;;;;;;8.70;1.45;;;15.40;99.90;;;;;;4990764;28;25113;-78
2022/11/25 03:37:52;;;;;;;4.63;1.80;;;15.40;99.90;;;;;;4996896;28;25050;-78
2022/11/25 03:40:17;;;;;;;4.75;1.30;;;15.50;99.90;;;;;;5009105;28;25062;-79
2022/11/25 03:42:43;;;;;;;8.30;2.22;;;15.30;99.90;;;;;;5002646;28;25085;-78
2022/11/25 03:45:14;;;;;;;7.18;1.98;;;15.20;99.90;;;;;;5001813;28;25083;-78
2022/11/25 03:47:43;;;;;;;5.65;2.17;;;15.20;99.90;;;;;;4998528;28;25065;-78
2022/11/25 03:50:10;;;;;;;13.65;1.75;;;15.20;99.90;;;;;;5019710;28;25064;-78
2022/11/25 03:52:36;;;;;;;4.65;1.85;;;15.10;99.90;;;;;;5007381;28;25153;-78
2022/11/25 03:55:02;;;;;;;5.00;1.63;;;15.20;99.90;;;;;;5004825;28;25083;-78
2022/11/25 03:57:28;;;;;;;5.50;2.38;;;15.10;99.90;;;;;;5005454;28;25104;-78
2022/11/25 03:59:54;;;;;;;9.90;1.80;;;14.90;99.90;;;;;;5024685;28;25099;-77
2022/11/25 04:02:19;;;;;;;3.78;1.70;;;15.00;99.90;;;;;;5001477;28;25074;-77
2022/11/25 04:04:45;;;;;;;6.13;2.38;;;14.90;99.90;;;;;;5000004;28;25123;-77
2022/11/25 04:07:11;;;;;;;7.00;2.35;;;14.90;99.90;;;;;;5009591;28;25118;-78
2022/11/25 04:09:37;;;;;;;9.27;1.70;;;14.90;99.90;;;;;;5019278;28;25072;-79
2022/11/25 04:14:46;;;;;;;6.03;1.40;;;14.80;99.90;;;;;;5013786;28;25078;-79
2022/11/25 04:17:12;;;;;;;10.85;1.45;;;14.60;99.90;;;;;;5028296;28;25058;-77
2022/11/25 04:19:38;;;;;;;7.88;1.70;;;14.60;99.90;;;;;;4994688;28;25085;-79
2022/11/25 04:22:04;;;;;;;6.25;1.10;;;14.60;99.90;;;;;;5000044;28;25058;-79
2022/11/25 04:24:30;;;;;;;5.22;1.20;;;14.50;99.90;;;;;;5014714;28;25117;-78
2022/11/25 04:26:56;;;;;;;11.35;1.42;;;14.60;99.90;;;;;;5003482;28;25071;-79
2022/11/25 04:29:21;;;;;;;3.40;1.20;;;14.50;99.90;;;;;;5013203;28;25068;-78
2022/11/25 04:31:47;;;;;;;5.45;1.40;;;14.50;99.90;;;;;;5026631;28;25072;-75
2022/11/25 04:34:13;;;;;;;6.50;1.70;;;14.40;99.90;;;;;;5005483;28;25098;-78
2022/11/25 04:36:39;;;;;;;8.02;1.10;;;14.50;99.90;;;;;;5001843;28;25069;-79
2022/11/25 04:39:04;;;;;;;5.68;1.45;;;14.40;99.90;;;;;;4999028;28;25075;-79
2022/11/25 04:41:30;;;;;;;9.32;1.55;;;14.50;99.90;;;;;;4999714;28;25195;-78
2022/11/25 04:43:59;;;;;;;7.50;1.40;;;14.40;99.90;;;;;;4997438;28;25099;-78
2022/11/25 04:46:31;;;;;;;7.63;1.48;;;14.40;99.90;;;;;;4997000;28;25127;-78
2022/11/25 04:48:57;;;;;;;4.32;1.25;;;14.30;99.90;;;;;;5002270;28;25119;-78
2022/11/25 04:51:23;;;;;;;1.92;0.98;;;14.20;99.90;;;;;;5013482;28;25063;-78
2022/11/25 04:53:49;;;;;;;9.57;1.50;;;14.30;99.90;;;;;;5012556;28;25116;-77
2022/11/25 04:56:19;;;;;;;4.50;1.33;;;14.30;99.90;;;;;;5006513;28;25065;-79
2022/11/25 05:01:29;;;;;;;8.55;1.52;;;14.30;99.90;;;;;;4996810;28;25065;-77
2022/11/25 05:03:56;;;;;;;2.63;1.13;;;14.40;99.90;;;;;;5001837;28;25060;-79
2022/11/25 05:06:22;;;;;;;2.53;1.50;;;14.30;99.90;;;;;;4987711;28;25145;-78
2022/11/25 05:08:48;;;;;;;5.90;1.45;;;14.30;99.90;;;;;;5004151;28;25041;-77
2022/11/25 05:11:14;;;;;;;2.20;1.40;;;14.20;99.90;;;;;;4997129;28;25173;-77
2022/11/25 05:13:40;;;;;;;4.55;1.58;;;14.20;99.90;;;;;;4986773;28;25066;-75
2022/11/25 05:16:06;;;;;;;4.20;1.88;;;14.20;99.90;;;;;;5010552;28;25071;-76
2022/11/25 05:18:31;;;;;;;5.38;1.92;;;14.20;99.90;;;;;;5024912;28;25105;-75
2022/11/25 05:21:04;;;;;;;6.43;1.77;;;14.20;99.90;;;;;;4996842;28;25113;-75
2022/11/25 05:23:30;;;;;;;5.05;1.70;;;14.20;99.90;;;;;;5015555;28;25068;-74
2022/11/25 05:26:01;;;;;;;9.20;1.90;;;14.30;99.90;;;;;;5003824;28;25068;-75
2022/11/25 05:28:28;;;;;;;4.25;2.03;;;14.20;99.90;;;;;;4985604;28;25128;-76
2022/11/25 05:30:54;;;;;;;4.97;1.85;;;14.20;99.90;;;;;;4982670;28;25134;-76
2022/11/25 05:33:19;;;;;;;7.70;2.30;;;14.10;99.90;;;;;;4980734;28;25174;-76
2022/11/25 05:35:57;;;;;;;3.17;1.95;;;14.20;99.90;;;;;;4984724;28;25050;-76
2022/11/25 05:38:22;;;;;;;7.47;2.88;;;14.20;99.90;;;;;;4984513;28;25058;-76
2022/11/25 05:40:48;;;;;;;7.35;1.92;;;14.20;99.90;;;;;;4982291;28;25167;-75
2022/11/25 05:43:14;;;;;;;8.40;2.25;;;14.20;99.90;;;;;;4983112;28;25154;-76
2022/11/25 05:45:39;;;;;;;4.00;2.20;;;14.10;99.90;;;;;;4987383;28;25168;-75
2022/11/25 05:48:05;;;;;;;6.75;2.30;;;14.10;99.90;;;;;;4995435;28;25139;-75
2022/11/25 05:50:31;;;;;;;8.48;2.28;;;14.00;99.90;;;;;;4989618;28;25082;-75
2022/11/25 05:52:56;;;;;;;5.70;2.13;;;14.00;99.90;;;;;;4994986;28;25078;-75
2022/11/25 05:55:22;;;;;;;6.53;2.30;;;14.10;99.90;;;;;;4984267;28;25084;-76
2022/11/25 05:57:47;;;;;;;11.95;2.35;;;14.10;99.90;;;;;;4987817;28;25141;-78
2022/11/25 06:00:14;;;;;;;8.60;1.88;;;14.00;99.90;;;;;;4989241;28;25066;-76
2022/11/25 06:02:39;;;;;;;5.95;2.30;;;13.90;99.90;;;;;;4989765;28;25076;-76
2022/11/25 06:05:05;;;;;;;12.73;2.30;;;13.80;99.90;;;;;;5001610;28;25107;-76
2022/11/25 06:07:31;;;;;;;10.07;2.08;;;13.90;99.90;;;;;;4987373;28;25062;-75
2022/11/25 06:09:56;;;;;;;5.22;2.45;;;13.70;99.90;;;;;;5011929;28;25076;-75
2022/11/25 06:12:22;;;;;;;6.10;2.63;;;13.70;99.90;;;;;;4994486;28;25170;-76
2022/11/25 06:14:49;;;;;;;10.65;2.58;;;13.70;99.90;;;;;;4992842;28;25106;-76
2022/11/25 06:17:15;;;;;;;7.90;2.35;;;13.70;99.90;;;;;;4985622;28;25060;-76
2022/11/25 06:19:40;;;;;;;8.38;2.97;;;13.60;99.90;;;;;;4992690;28;25125;-75
2022/11/25 06:22:06;;;;;;;7.43;2.45;;;13.60;99.90;;;;;;4985453;28;25405;-76
2022/11/25 06:24:31;;;;;;;9.10;2.35;;;13.50;99.90;;;;;;4988455;28;25082;-76
2022/11/25 06:26:57;;;;;;;7.57;2.83;;;13.40;99.90;;;;;;4984897;28;25061;-75
2022/11/25 06:29:23;;;;;;;7.55;2.75;;;13.30;99.90;;;;;;4991615;28;25161;-77
2022/11/25 06:31:49;;;;;;;13.98;3.55;;;13.30;99.90;;;;;;4987988;28;25150;-77
2022/11/25 06:34:14;;;;;;;6.40;2.45;;;13.30;99.90;;;;;;5003879;28;25110;-76
2022/11/25 06:36:40;;;;;;;7.93;2.83;;;13.30;99.90;;;;;;4983899;28;25118;-75
2022/11/25 06:39:06;;;;;;;10.35;3.42;;;13.40;99.90;;;;;;4988902;28;25074;-75
2022/11/25 06:41:31;;;;;;;8.93;3.67;;;13.40;99.90;;;;;;4986516;28;25136;-76
2022/11/25 06:43:57;;;;;;;11.95;3.33;;;13.40;99.90;;;;;;4995401;28;25140;-75
2022/11/25 06:46:23;;;;;;;11.55;3.10;;;13.40;99.90;;;;;;4986081;28;25143;-77
2022/11/25 06:48:48;;;;;;;13.25;3.25;;;13.40;99.90;;;;;;5005604;28;25048;-76
2022/11/25 06:51:15;;;;;;;17.13;4.15;;;13.30;99.90;;;;;;4992890;28;25125;-75
2022/11/25 06:53:41;;;;;;;11.07;3.28;;;13.40;99.90;;;;;;4988637;28;25076;-75
2022/11/25 06:56:18;;;;;;;13.80;3.22;;;13.40;99.90;;;;;;4996726;28;25139;-75
2022/11/25 06:58:44;;;;;;;13.18;4.22;;;13.20;99.90;;;;;;4991157;28;25069;-77
2022/11/25 07:01:12;;;;;;;10.60;3.00;;;13.20;99.90;;;;;;5009211;28;25059;-76
2022/11/25 07:03:39;;;;;;;10.50;3.70;;;13.20;99.90;;;;;;4988141;28;25063;-78
2022/11/25 07:06:04;;;;;;;11.23;4.55;;;13.20;99.90;;;;;;4996368;28;25068;-76
2022/11/25 07:08:30;;;;;;;13.63;3.72;;;13.20;99.90;;;;;;4997424;28;25077;-75
2022/11/25 07:11:03;;;;;;;18.23;3.78;;;13.30;99.90;;;;;;4994746;28;25060;-76
2022/11/25 07:13:29;;;;;;;8.15;3.22;;;13.30;99.90;;;;;;4997596;28;25071;-76
2022/11/25 07:15:54;;;;;;;12.55;4.30;;;13.20;99.90;;;;;;4993545;28;25111;-76
2022/11/25 07:18:20;;;;;;;10.15;4.40;;;13.10;99.90;;;;;;5002610;28;25068;-76
2022/11/25 07:20:45;;;;;;;11.50;3.35;;;13.30;99.90;;;;;;4992203;28;25064;-74
2022/11/25 07:23:11;;;;;;;12.80;4.22;;;13.30;99.90;;;;;;4996778;28;25080;-75
2022/11/25 07:25:37;;;;;;;14.57;3.65;;;13.30;99.90;;;;;;4991559;28;25088;-76
2022/11/25 07:28:02;;;;;;;13.93;3.63;;;13.30;99.90;;;;;;4993723;28;25162;-76
2022/11/25 07:30:28;;;;;;;14.52;4.03;;;13.40;99.90;;;;;;4996513;28;25057;-74
2022/11/25 07:32:54;;;;;;;10.02;3.58;;;13.50;99.90;;;;;;5006927;28;25066;-77
2022/11/25 07:35:20;;;;;;;9.20;3.20;;;13.50;99.90;;;;;;5012317;28;25105;-75
2022/11/25 07:37:45;;;;;;;10.35;3.95;;;13.40;99.90;;;;;;5007751;28;25082;-75
2022/11/25 07:40:11;;;;;;;11.85;3.40;;;13.40;99.90;;;;;;5000876;28;25075;-76
2022/11/25 07:42:37;;;;;;;9.02;2.38;;;13.30;99.90;;;;;;4998217;28;25050;-76
2022/11/25 07:45:03;;;;;;;7.38;2.92;;;13.30;99.90;;;;;;4993813;28;25052;-75
2022/11/25 07:47:28;;;;;;;7.22;3.60;;;13.30;99.90;;;;;;4991877;28;25065;-75
2022/11/25 07:49:54;;;;;;;9.20;3.20;;;13.20;99.90;;;;;;4997604;28;25141;-75
2022/11/25 07:52:20;;;;;;;9.57;3.15;;;13.20;99.90;;;;;;5011171;28;25091;-75
2022/11/25 07:54:45;;;;;;;6.30;2.42;;;13.10;99.90;;;;;;4998170;28;25089;-75
2022/11/25 07:57:11;;;;;;;10.88;3.17;;;13.00;99.90;;;;;;5002149;28;25078;-75
2022/11/25 07:59:40;;;;;;;9.48;2.70;;;13.10;99.90;;;;;;4990396;28;25056;-76
2022/11/25 08:02:08;;;;;;;10.40;2.65;;;13.10;99.90;;;;;;4988816;28;25104;-76
2022/11/25 08:04:33;;;;;;;8.95;2.70;;;13.00;99.90;;;;;;4987059;28;25112;-76
2022/11/25 08:06:59;;;;;;;9.82;2.65;;;13.00;99.90;;;;;;4991333;28;25092;-79
2022/11/25 08:09:25;;;;;;;9.57;2.58;;;13.00;99.90;;;;;;4989272;28;25072;-75
2022/11/25 08:11:51;;;;;;;14.23;3.42;;;13.00;99.90;;;;;;4989079;28;25086;-77
2022/11/25 08:14:18;;;;;;;10.27;2.38;;;12.90;99.90;;;;;;4987688;28;25140;-76
2022/11/25 08:16:43;;;;;;;6.38;2.70;;;12.90;99.90;;;;;;4993909;28;25059;-75
2022/11/25 08:19:13;;;;;;;6.15;2.60;;;12.80;99.90;;;;;;4988190;28;25095;-77
2022/11/25 08:21:39;;;;;;;6.90;2.25;;;12.80;99.90;;;;;;4989896;28;25119;-75
2022/11/25 08:24:05;;;;;;;6.68;2.55;;;12.70;99.90;;;;;;4994456;28;25140;-75
2022/11/25 08:26:35;;;;;;;13.73;2.92;;;12.60;99.90;;;;;;4990104;28;25068;-75
2022/11/25 08:29:02;;;;;;;6.78;2.15;;;12.60;99.90;;;;;;4990450;28;25124;-76
2022/11/25 08:31:34;;;;;;;8.23;2.72;;;12.60;99.90;;;;;;4993546;28;25076;-76
2022/11/25 08:34:01;;;;;;;5.82;2.38;;;12.60;99.90;;;;;;4996801;28;25069;-76
2022/11/25 08:36:28;;;;;;;4.25;2.33;;;12.50;99.90;;;;;;4990095;28;25153;-76
2022/11/25 08:38:58;;;;;;;8.45;3.00;;;12.50;99.90;;;;;;5006873;28;25100;-77
2022/11/25 08:41:28;;;;;;;6.75;2.40;;;12.50;99.90;;;;;;4990251;28;25074;-76
2022/11/25 08:43:55;;;;;;;11.18;3.00;;;12.50;99.90;;;;;;4988253;28;25052;-76
2022/11/25 08:46:24;;;;;;;12.90;2.70;;;12.40;99.90;;;;;;4985924;28;25063;-76
2022/11/25 08:48:50;;;;;;;5.22;2.35;;;12.40;99.90;;;;;;4992158;28;25097;-73
2022/11/25 08:51:19;;;;;;;8.82;3.40;;;12.30;99.90;;;;;;4988866;28;25126;-75
2022/11/25 08:53:45;;;;;;;9.43;3.13;;;12.40;99.90;;;;;;5001701;28;25093;-74
2022/11/25 08:56:11;;;;;;;9.25;2.90;;;12.30;99.90;;;;;;5006620;28;25094;-75
2022/11/25 08:58:37;;;;;;;10.05;3.17;;;12.30;99.90;;;;;;4991317;28;25113;-77
2022/11/25 09:01:04;;;;;;;15.45;3.70;;;12.40;99.90;;;;;;4987599;28;25100;-76
2022/11/25 09:03:35;;;;;;;8.85;3.58;;;12.40;99.90;;;;;;4987842;28;25115;-76
2022/11/25 09:06:02;;;;;;;8.33;3.43;;;12.40;99.90;;;;;;5000766;28;25066;-75
2022/11/25 09:08:29;;;;;;;9.85;3.75;;;12.40;99.90;;;;;;4983721;28;25086;-76
2022/11/25 09:10:54;;;;;;;12.50;4.35;;;12.40;99.90;;;;;;4986705;28;25063;-76
2022/11/25 09:13:20;;;;;;;11.55;3.92;;;12.40;99.90;;;;;;4986137;28;25065;-75
2022/11/25 09:15:45;;;;;;;12.88;3.65;;;12.30;99.90;;;;;;4986235;28;25068;-76
2022/11/25 09:18:12;;;;;;;12.50;3.67;;;12.30;99.90;;;;;;5002634;28;25057;-76
2022/11/25 09:20:39;;;;;;;14.18;3.80;;;12.30;99.90;;;;;;4998311;28;25164;-76
2022/11/25 09:23:06;;;;;;;10.98;3.88;;;12.30;99.90;;;;;;4981277;28;25161;-76
2022/11/25 09:25:32;;;;;;;11.80;4.50;;;12.40;99.90;;;;;;4984037;28;25136;-76
2022/11/25 09:27:57;;;;;;;12.77;5.47;;;12.40;99.90;;;;;;5004555;28;25077;-75
2022/11/25 09:30:24;;;;;;;13.20;4.10;;;12.40;99.90;;;;;;4993775;28;25088;-74
2022/11/25 09:32:51;;;;;;;13.73;4.53;;;12.40;99.90;;;;;;4990152;28;25070;-76
2022/11/25 09:35:18;;;;;;;11.82;4.25;;;12.40;99.90;;;;;;4992581;28;25132;-76
2022/11/25 09:37:43;;;;;;;12.13;4.70;;;12.30;99.90;;;;;;4989606;28;25145;-76
2022/11/25 09:40:26;;;;;;;14.90;5.43;;;12.50;99.90;;;;;;5001300;28;25149;-75
2022/11/25 09:49:24;;;;;;;18.38;4.43;;;12.50;99.90;;;;;;4980852;28;25066;-77
2022/11/25 09:51:49;;;;;;;16.27;4.75;;;12.50;99.90;;;;;;4985551;28;25151;-76
2022/11/25 09:54:22;;;;;;;17.77;4.38;;;12.60;99.90;;;;;;4985598;28;25062;-74
2022/11/25 09:56:53;;;;;;;8.90;3.22;;;12.60;99.90;;;;;;4988731;28;25129;-76
2022/11/25 09:59:40;;;;;;;17.85;4.68;;;12.60;99.90;;;;;;4986217;28;25118;-75
2022/11/25 10:02:22;;;;;;;15.40;4.20;;;12.60;99.90;;;;;;4991835;28;25143;-77
2022/11/25 10:05:17;;;;;;;10.20;3.40;;;12.50;99.90;;;;;;4991233;28;25173;-76
2022/11/25 10:07:48;;;;;;;13.52;3.90;;;12.50;99.90;;;;;;4989033;28;25061;-78
2022/11/25 10:10:26;;;;;;;13.00;3.45;;;12.50;99.90;;;;;;4986156;28;25051;-76
2022/11/25 10:12:55;;;;;;;15.15;4.05;;;12.60;99.90;;;;;;4982089;28;25162;-76
2022/11/25 10:15:33;;;;;;;9.00;2.88;;;12.50;99.90;;;;;;4991665;28;25157;-75
2022/11/25 10:18:31;;;;;;;13.07;3.40;;;12.40;99.90;;;;;;4988417;28;25066;-75
2022/11/25 10:20:57;;;;;;;11.27;3.40;;;12.40;99.90;;;;;;4978149;28;25158;-73
2022/11/25 10:23:38;;;;;;;9.82;3.22;;;12.40;99.90;;;;;;4986449;28;25145;-75
2022/11/25 10:26:21;;;;;;;9.65;2.83;;;12.50;99.90;;;;;;4984356;28;25106;-73
2022/11/25 10:29:11;;;;;;;8.02;2.60;;;12.30;99.90;;;;;;4987595;28;25069;-74
2022/11/25 10:31:38;;;;;;;8.15;2.63;;;12.20;99.90;;;;;;4990650;28;25053;-73
2022/11/25 10:34:25;;;;;;;6.93;2.35;;;12.20;99.90;;;;;;4986351;28;25139;-76
2022/11/25 10:36:53;;;;;;;9.77;2.75;;;12.10;99.90;;;;;;4992110;28;25074;-73
2022/11/25 10:39:25;;;;;;;6.43;2.60;;;12.10;99.90;;;;;;4989131;28;25068;-75
2022/11/25 10:42:02;;;;;;;8.07;2.17;;;12.10;99.90;;;;;;4987962;28;25074;-75
2022/11/25 10:44:32;;;;;;;8.20;2.88;;;12.10;99.90;;;;;;5004903;28;25078;-75
2022/11/25 10:47:16;;;;;;;8.68;2.15;;;12.10;99.90;;;;;;5006271;28;25067;-76
2022/11/25 10:49:50;;;;;;;8.68;1.85;;;12.10;99.90;;;;;;4990243;28;24801;-75
2022/11/25 10:52:21;;;;;;;10.43;2.30;;;12.20;99.90;;;;;;4985770;28;25072;-75
2022/11/25 10:55:07;;;;;;;8.57;2.10;;;12.20;99.90;;;;;;4983918;28;25121;-76
2022/11/25 10:57:32;;;;;;;12.27;1.95;;;12.20;99.90;;;;;;4993927;28;25091;-75
2022/11/25 10:59:59;;;;;;;8.55;2.15;;;12.20;99.90;;;;;;4993346;28;25139;-76
2022/11/25 11:02:37;;;;;;;5.78;1.60;;;12.20;99.90;;;;;;4988655;28;25052;-76
2022/11/25 11:05:18;;;;;;;7.45;1.90;;;12.30;99.90;;;;;;4987062;28;25117;-75
2022/11/25 11:07:45;;;;;;;8.43;1.70;;;12.30;99.90;;;;;;4988432;28;25133;-74
2022/11/25 11:10:19;;;;;;;11.52;1.80;;;12.30;99.90;;;;;;5002082;28;25121;-76
2022/11/25 11:12:54;;;;;;;10.10;2.00;;;12.60;99.90;;;;;;4999658;28;25174;-76
2022/11/25 11:15:23;;;;;;;11.48;1.90;;;12.70;99.90;;;;;;5015931;28;25077;-75
2022/11/25 11:17:49;;;;;;;7.45;2.05;;;12.70;99.90;;;;;;5027981;28;25094;-76
2022/11/25 11:20:18;;;;;;;6.47;1.80;;;12.60;99.90;;;;;;5014213;28;25064;-75
2022/11/25 11:22:52;;;;;;;7.40;1.67;;;12.50;99.90;;;;;;4997850;28;25066;-75
2022/11/25 11:25:22;;;;;;;6.78;1.55;;;12.50;99.90;;;;;;5005489;28;25058;-76
2022/11/25 11:27:48;;;;;;;6.18;1.75;;;12.50;99.90;;;;;;5023826;28;25099;-74
2022/11/25 11:30:23;;;;;;;10.88;1.88;;;12.50;99.90;;;;;;5004259;28;25095;-74
2022/11/25 11:32:54;;;;;;;12.15;2.20;;;12.50;99.90;;;;;;5011126;28;25055;-74
2022/11/25 11:35:30;;;;;;;3.07;1.13;;;12.60;99.90;;;;;;5002455;28;25054;-74
2022/11/25 11:38:15;;;;;;;9.63;1.83;;;12.60;99.90;;;;;;4992006;28;25106;-75
2022/11/25 11:40:50;;;;;;;17.00;2.78;;;12.80;99.90;;;;;;5003044;28;25054;-74
2022/11/25 11:43:55;;;;;;;6.35;1.50;;;12.80;99.90;;;;;;4998875;28;25070;-74
2022/11/25 11:46:59;;;;;;;10.70;1.65;;;12.70;99.90;;;;;;4988671;28;25061;-75
2022/11/25 11:49:43;;;;;;;6.50;1.73;;;12.70;99.90;;;;;;4986280;28;25089;-75
2022/11/25 11:52:45;;;;;;;10.80;2.20;;;12.90;99.90;;;;;;4982228;28;25062;-74
2022/11/25 11:55:33;;;;;;;10.17;1.80;;;12.70;99.90;;;;;;4982783;28;25070;-74
2022/11/25 11:58:12;;;;;;;7.28;2.13;;;12.80;99.90;;;;;;4986989;28;25144;-75
2022/11/25 12:01:02;;;;;;;12.23;2.13;;;12.90;99.90;;;;;;4992565;28;25109;-73
2022/11/25 12:03:31;;;;;;;7.80;1.60;;;13.00;99.90;;;;;;4988979;28;25112;-75
2022/11/25 12:06:03;;;;;;;9.18;1.90;;;12.70;99.90;;;;;;4992507;28;25075;-75
2022/11/25 12:08:47;;;;;;;5.07;1.63;;;12.60;99.90;;;;;;4991288;28;25074;-73
2022/11/25 12:11:40;;;;;;;9.45;2.15;;;12.50;99.90;;;;;;4992159;28;25060;-74
2022/11/25 12:14:31;;;;;;;6.90;2.05;;;12.60;99.90;;;;;;4987533;28;25088;-75
2022/11/25 12:17:00;;;;;;;11.57;1.83;;;12.80;99.90;;;;;;5001347;28;25100;-74
2022/11/25 12:19:38;;;;;;;14.25;3.40;;;12.60;99.90;;;;;;5007260;28;25071;-75
2022/11/25 12:22:10;;;;;;;14.40;2.78;;;12.60;99.90;;;;;;4996659;28;25070;-75
2022/11/25 12:24:45;;;;;;;14.35;2.47;;;13.00;99.90;;;;;;4993770;28;25102;-73
2022/11/25 12:27:26;;;;;;;20.90;3.45;;;13.10;99.90;;;;;;5000168;28;25053;-74
2022/11/25 12:30:13;;;;;;;10.60;2.38;;;12.90;99.90;;;;;;4986893;28;25115;-74
2022/11/25 12:33:11;;;;;;;17.42;2.15;;;12.80;99.90;;;;;;4988789;28;25080;-74
2022/11/25 12:35:37;;;;;;;17.38;3.35;;;12.70;99.90;;;;;;4983698;28;25146;-75
2022/11/25 12:38:29;;;;;;;14.77;2.33;;;12.70;99.90;;;;;;4984174;28;25095;-72
2022/11/25 12:41:18;;;;;;;11.47;2.67;;;12.60;99.90;;;;;;5002392;28;25099;-74
2022/11/25 12:44:05;;;;;;;12.70;2.25;;;12.90;99.90;;;;;;4984326;28;25126;-72
2022/11/25 12:46:45;;;;;;;8.70;2.50;;;13.00;99.90;;;;;;4995705;28;25062;-73
2022/11/25 12:49:14;;;;;;;17.95;3.22;;;13.20;99.90;;;;;;4988973;28;25163;-73
2022/11/25 12:51:53;;;;;;;10.02;2.00;;;12.90;99.90;;;;;;4989415;28;25055;-74
2022/11/25 12:54:49;;;;;;;11.38;2.70;;;12.80;99.90;;;;;;4980834;28;25125;-72
2022/11/25 12:57:44;;;;;;;10.65;2.83;;;13.00;99.90;;;;;;4988657;28;25068;-74
2022/11/25 13:00:16;;;;;;;10.95;2.03;;;13.00;99.90;;;;;;4978061;28;25076;-74
2022/11/25 13:03:06;;;;;;;12.45;2.40;;;13.00;99.90;;;;;;5005171;28;25119;-74
2022/11/25 13:05:51;;;;;;;11.23;3.08;;;12.90;99.90;;;;;;4981488;28;25086;-73
2022/11/25 13:08:56;;;;;;;13.93;3.05;;;12.90;99.90;;;;;;4984555;28;25105;-73
2022/11/25 13:11:30;;;;;;;7.55;1.92;;;12.90;99.90;;;;;;4981929;28;25120;-73
2022/11/25 13:14:02;;;;;;;12.68;4.20;;;13.10;99.90;;;;;;4980989;28;25065;-72